createdAt,value
2023-02-01T00:00:24.936Z,0.46
2023-02-01T00:02:51.468Z,0.53
2023-02-01T00:05:18.081Z,0.55
2023-02-01T00:07:46.029Z,0.54
2023-02-01T00:10:12.782Z,0.52
2023-02-01T00:12:39.469Z,0.63
2023-02-01T00:15:06.697Z,0.60
2023-02-01T00:17:33.220Z,0.61
2023-02-01T00:19:59.832Z,0.62
2023-02-01T00:22:26.438Z,0.54
2023-02-01T00:24:53.062Z,0.49
2023-02-01T00:27:19.692Z,0.49
2023-02-01T00:29:46.376Z,0.56
2023-02-01T00:32:13.084Z,0.55
2023-02-01T00:34:39.745Z,0.53
2023-02-01T00:37:06.364Z,0.57
2023-02-01T00:39:33.102Z,0.55
2023-02-01T00:42:01.222Z,0.48
2023-02-01T00:44:27.759Z,0.52
2023-02-01T00:46:54.385Z,0.48
2023-02-01T00:49:21.007Z,0.56
2023-02-01T00:51:47.579Z,0.58
2023-02-01T00:54:14.229Z,0.62
2023-02-01T00:56:40.887Z,0.67
2023-02-01T00:59:08.579Z,0.69
2023-02-01T01:01:35.243Z,0.69
2023-02-01T01:04:01.886Z,0.69
2023-02-01T01:06:32.466Z,0.68
2023-02-01T01:09:00.149Z,0.69
2023-02-01T01:11:30.790Z,0.70
2023-02-01T01:13:58.213Z,0.70
2023-02-01T01:16:25.624Z,0.70
2023-02-01T01:18:52.321Z,0.74
2023-02-01T01:21:19.056Z,0.78
2023-02-01T01:23:46.204Z,0.77
2023-02-01T01:26:17.763Z,0.74
2023-02-01T01:28:44.363Z,0.76
2023-02-01T01:31:15.239Z,0.74
2023-02-01T01:33:41.976Z,0.70
2023-02-01T01:36:09.253Z,0.84
2023-02-01T01:38:36.169Z,0.82
2023-02-01T01:41:02.859Z,0.73
2023-02-01T01:43:49.117Z,0.76
2023-02-01T01:46:19.998Z,0.90
2023-02-01T01:48:47.306Z,0.77
2023-02-01T01:51:14.064Z,0.84
2023-02-01T01:53:46.147Z,0.81
2023-02-01T01:56:13.046Z,0.81
2023-02-01T01:58:39.684Z,0.80
2023-02-01T02:01:06.537Z,0.81
2023-02-01T02:03:45.911Z,0.86
2023-02-01T02:06:43.363Z,0.85
2023-02-01T02:09:10.045Z,0.79
2023-02-01T02:11:36.703Z,0.87
2023-02-01T02:14:03.410Z,0.82
2023-02-01T02:16:45.178Z,0.86
2023-02-01T02:19:20.824Z,0.85
2023-02-01T02:22:11.913Z,0.87
2023-02-01T02:25:03.259Z,0.89
2023-02-01T02:27:57.757Z,0.81
2023-02-01T02:30:55.201Z,0.90
2023-02-01T02:33:59.253Z,0.81
2023-02-01T02:36:44.571Z,0.88
2023-02-01T02:39:41.198Z,0.83
2023-02-01T02:42:35.831Z,0.93
2023-02-01T02:45:21.082Z,0.84
2023-02-01T02:47:58.639Z,0.86
2023-02-01T02:51:08.600Z,0.86
2023-02-01T02:53:38.951Z,0.92
2023-02-01T02:56:06.489Z,0.83
2023-02-01T02:58:33.124Z,0.91
2023-02-01T03:00:59.767Z,0.92
2023-02-01T03:03:26.377Z,0.87
2023-02-01T03:05:53.134Z,0.85
2023-02-01T03:08:20.396Z,0.87
2023-02-01T03:11:05.739Z,0.87
2023-02-01T03:13:41.406Z,0.87
2023-02-01T03:16:08.714Z,0.89
2023-02-01T03:18:49.667Z,0.90
2023-02-01T03:21:27.434Z,0.90
2023-02-01T03:23:55.000Z,0.90
2023-02-01T03:26:22.739Z,0.93
2023-02-01T03:28:53.384Z,0.91
2023-02-01T03:31:20.134Z,0.90
2023-02-01T03:33:46.767Z,0.97
2023-02-01T03:36:21.887Z,0.90
2023-02-01T03:39:16.659Z,0.94
2023-02-01T03:41:54.204Z,0.94
2023-02-01T03:44:24.748Z,0.98
2023-02-01T03:47:01.205Z,0.87
2023-02-01T03:49:36.042Z,0.91
2023-02-01T03:52:02.710Z,0.86
2023-02-01T03:54:29.301Z,0.87
2023-02-01T03:56:57.765Z,0.91
2023-02-01T03:59:24.398Z,0.91
2023-02-01T04:01:51.223Z,0.90
2023-02-01T04:04:17.906Z,0.90
2023-02-01T04:06:44.457Z,0.94
2023-02-01T04:09:10.968Z,0.79
2023-02-01T04:11:37.599Z,0.83
2023-02-01T04:14:04.162Z,0.77
2023-02-01T04:16:32.065Z,0.81
2023-02-01T04:18:59.065Z,0.80
2023-02-01T04:21:29.048Z,0.79
2023-02-01T04:23:55.727Z,0.85
2023-02-01T04:26:22.496Z,0.82
2023-02-01T04:28:49.281Z,0.78
2023-02-01T04:31:16.752Z,0.77
2023-02-01T04:33:43.416Z,0.79
2023-02-01T04:36:10.121Z,0.79
2023-02-01T04:38:36.724Z,0.77
2023-02-01T04:41:03.339Z,0.73
2023-02-01T04:43:29.996Z,0.82
2023-02-01T04:45:56.876Z,0.80
2023-02-01T04:48:25.058Z,0.85
2023-02-01T04:50:51.890Z,0.80
2023-02-01T04:53:18.676Z,0.82
2023-02-01T04:55:45.368Z,0.79
2023-02-01T04:58:12.072Z,0.74
2023-02-01T05:00:38.814Z,0.73
2023-02-01T05:03:05.528Z,0.76
2023-02-01T05:05:32.102Z,0.80
2023-02-01T05:07:58.759Z,0.74
2023-02-01T05:10:25.516Z,0.71
2023-02-01T05:12:52.347Z,0.70
2023-02-01T05:15:18.987Z,0.77
2023-02-01T05:17:45.707Z,0.79
2023-02-01T05:20:12.363Z,0.75
2023-02-01T05:22:39.019Z,0.76
2023-02-01T05:25:08.215Z,0.77
2023-02-01T05:27:35.100Z,0.81
2023-02-01T05:30:02.391Z,0.78
2023-02-01T05:32:29.070Z,0.74
2023-02-01T05:34:55.733Z,0.74
2023-02-01T05:37:22.521Z,0.80
2023-02-01T05:39:49.118Z,0.74
2023-02-01T05:42:15.923Z,0.73
2023-02-01T05:44:42.555Z,0.75
2023-02-01T05:47:09.208Z,0.73
2023-02-01T05:49:35.800Z,0.68
2023-02-01T05:52:02.565Z,0.74
2023-02-01T05:54:29.221Z,0.74
2023-02-01T05:56:55.911Z,0.70
2023-02-01T05:59:22.578Z,0.71
2023-02-01T06:01:49.329Z,0.65
2023-02-01T06:04:15.931Z,0.63
2023-02-01T06:06:42.499Z,0.66
2023-02-01T06:09:09.156Z,0.64
2023-02-01T06:11:35.818Z,0.74
2023-02-01T06:14:02.494Z,0.71
2023-02-01T06:16:29.220Z,0.73
2023-02-01T06:18:56.007Z,0.71
2023-02-01T06:21:22.660Z,0.69
2023-02-01T06:23:49.253Z,0.68
2023-02-01T06:26:16.017Z,0.69
2023-02-01T06:28:42.625Z,0.70
2023-02-01T06:31:09.434Z,0.82
2023-02-01T06:33:36.442Z,0.80
2023-02-01T06:36:05.211Z,0.88
2023-02-01T06:38:31.809Z,0.94
2023-02-01T06:40:58.683Z,0.88
2023-02-01T06:43:25.795Z,0.90
2023-02-01T06:45:52.682Z,1.09
2023-02-01T06:48:19.407Z,0.97
2023-02-01T06:50:46.029Z,1.02
2023-02-01T06:53:12.646Z,1.04
2023-02-01T06:55:39.350Z,0.99
2023-02-01T06:58:06.195Z,1.07
2023-02-01T07:00:32.858Z,1.08
2023-02-01T07:02:59.405Z,1.11
2023-02-01T07:05:25.991Z,1.07
2023-02-01T07:07:52.578Z,1.22
2023-02-01T07:10:19.552Z,1.23
2023-02-01T07:12:46.141Z,1.20
2023-02-01T07:15:12.864Z,1.27
2023-02-01T07:17:39.424Z,1.28
2023-02-01T07:20:06.834Z,1.27
2023-02-01T07:22:33.545Z,1.22
2023-02-01T07:25:00.211Z,1.27
2023-02-01T07:27:26.823Z,1.26
2023-02-01T07:29:53.490Z,1.28
2023-02-01T07:32:21.067Z,1.25
2023-02-01T07:34:47.710Z,1.25
2023-02-01T07:37:14.560Z,1.17
2023-02-01T07:39:41.229Z,1.13
2023-02-01T07:42:07.885Z,1.09
2023-02-01T07:44:34.618Z,1.17
2023-02-01T07:47:01.317Z,1.09
2023-02-01T07:49:27.940Z,1.12
2023-02-01T07:51:54.643Z,1.08
2023-02-01T07:54:21.313Z,1.08
2023-02-01T07:56:47.986Z,1.10
2023-02-01T07:59:14.552Z,1.12
2023-02-01T08:01:41.176Z,1.12
2023-02-01T08:04:10.076Z,1.21
2023-02-01T08:06:36.638Z,1.19
2023-02-01T08:09:03.786Z,1.14
2023-02-01T08:11:30.702Z,1.11
2023-02-01T08:13:57.973Z,1.17
2023-02-01T08:16:24.879Z,1.11
2023-02-01T08:18:52.068Z,1.20
2023-02-01T08:21:20.688Z,1.13
2023-02-01T08:23:47.465Z,1.12
2023-02-01T08:26:19.678Z,1.07
2023-02-01T08:28:49.554Z,1.10
2023-02-01T08:31:17.369Z,1.02
2023-02-01T08:33:44.453Z,1.04
2023-02-01T08:36:11.579Z,0.90
2023-02-01T08:38:38.989Z,0.88
2023-02-01T08:41:09.863Z,0.86
2023-02-01T08:43:36.959Z,0.82
2023-02-01T08:46:04.706Z,0.90
2023-02-01T08:48:31.623Z,0.88
2023-02-01T08:50:58.329Z,0.74
2023-02-01T08:53:24.893Z,0.68
2023-02-01T08:55:51.483Z,0.57
2023-02-01T08:58:18.246Z,0.37
2023-02-01T09:00:45.297Z,0.41
2023-02-01T09:03:12.307Z,0.46
2023-02-01T09:05:49.153Z,0.49
2023-02-01T09:08:16.969Z,0.36
2023-02-01T09:10:43.742Z,0.36
2023-02-01T09:13:10.853Z,0.30
2023-02-01T09:15:38.397Z,0.28
2023-02-01T09:18:05.152Z,0.17
2023-02-01T09:20:31.817Z,0.27
2023-02-01T09:22:58.607Z,0.15
2023-02-01T09:25:25.919Z,0.16
2023-02-01T09:27:52.725Z,0.19
2023-02-01T09:30:19.452Z,0.27
2023-02-01T09:32:46.113Z,0.89
2023-02-01T09:35:12.821Z,1.37
2023-02-01T09:37:39.517Z,1.20
2023-02-01T09:40:06.649Z,1.00
2023-02-01T09:43:11.933Z,0.90
2023-02-01T09:45:51.695Z,0.88
2023-02-01T09:48:21.624Z,1.22
2023-02-01T09:50:56.366Z,1.60
2023-02-01T09:53:30.377Z,1.54
2023-02-01T09:56:19.591Z,1.68
2023-02-01T09:58:53.115Z,1.65
2023-02-01T10:01:21.558Z,1.74
2023-02-01T10:03:48.338Z,1.75
2023-02-01T10:06:31.645Z,1.77
2023-02-01T10:09:28.649Z,1.79
2023-02-01T10:12:05.780Z,1.71
2023-02-01T10:15:06.841Z,1.72
2023-02-01T10:17:33.351Z,1.67
2023-02-01T10:20:16.631Z,1.62
2023-02-01T10:23:16.068Z,1.82
2023-02-01T10:25:54.588Z,1.77
2023-02-01T10:28:21.503Z,1.86
2023-02-01T10:30:48.833Z,1.85
2023-02-01T10:33:23.106Z,1.82
2023-02-01T10:35:55.047Z,1.94
2023-02-01T10:38:27.344Z,1.89
2023-02-01T10:40:54.469Z,2.03
2023-02-01T10:43:21.140Z,1.96
2023-02-01T10:45:47.813Z,1.89
2023-02-01T10:48:14.579Z,1.93
2023-02-01T10:50:55.963Z,1.90
2023-02-01T10:53:29.731Z,1.98
2023-02-01T10:55:57.054Z,2.05
2023-02-01T10:58:28.824Z,2.08
2023-02-01T11:01:06.123Z,2.10
2023-02-01T11:03:38.676Z,2.08
2023-02-01T11:06:16.106Z,2.03
2023-02-01T11:09:02.363Z,2.09
2023-02-01T11:11:29.084Z,1.96
2023-02-01T11:14:00.285Z,1.99
2023-02-01T11:16:38.650Z,1.99
2023-02-01T11:19:06.012Z,2.21
2023-02-01T11:21:35.514Z,2.05
2023-02-01T11:24:05.625Z,2.08
2023-02-01T11:26:32.319Z,2.18
2023-02-01T11:29:06.581Z,2.18
2023-02-01T11:31:33.919Z,2.42
2023-02-01T11:34:09.554Z,2.24
2023-02-01T11:36:36.647Z,2.27
2023-02-01T11:39:25.394Z,2.38
2023-02-01T11:42:04.663Z,2.35
2023-02-01T11:44:39.555Z,2.37
2023-02-01T11:47:30.446Z,2.47
2023-02-01T11:50:00.809Z,2.26
2023-02-01T11:52:42.729Z,2.31
2023-02-01T11:55:18.057Z,2.45
2023-02-01T11:57:47.380Z,2.42
2023-02-01T12:00:37.542Z,2.63
2023-02-01T12:03:22.689Z,2.54
2023-02-01T12:06:07.929Z,2.66
2023-02-01T12:08:53.191Z,3.12
2023-02-01T12:11:22.736Z,2.85
2023-02-01T12:14:16.122Z,2.50
2023-02-01T12:16:43.892Z,2.39
2023-02-01T12:19:47.742Z,2.27
2023-02-01T12:22:16.279Z,2.27
2023-02-01T12:25:00.097Z,2.45
2023-02-01T12:27:52.208Z,2.50
2023-02-01T12:30:52.686Z,2.30
2023-02-01T12:33:32.102Z,2.25
2023-02-01T12:36:09.749Z,2.25
2023-02-01T12:38:54.618Z,2.19
2023-02-01T12:41:37.194Z,2.11
2023-02-01T12:44:22.537Z,2.09
2023-02-01T12:46:59.344Z,1.99
2023-02-01T12:49:47.614Z,1.91
2023-02-01T12:52:17.959Z,1.90
2023-02-01T12:55:04.731Z,1.91
2023-02-01T12:57:42.433Z,1.76
2023-02-01T13:00:24.282Z,1.87
2023-02-01T13:03:16.385Z,1.83
2023-02-01T13:06:00.063Z,1.82
2023-02-01T13:08:32.254Z,1.82
2023-02-01T13:11:05.793Z,1.85
2023-02-01T13:14:17.456Z,1.92
2023-02-01T13:16:59.591Z,1.96
2023-02-01T13:19:40.242Z,1.94
2023-02-01T13:22:10.705Z,1.86
2023-02-01T13:24:45.855Z,1.87
2023-02-01T13:27:13.814Z,1.81
2023-02-01T13:29:52.428Z,1.85
2023-02-01T13:33:51.598Z,1.81
2023-02-01T13:35:59.077Z,1.94
2023-02-01T13:38:39.734Z,1.95
2023-02-01T13:41:36.744Z,1.97
2023-02-01T13:44:11.897Z,2.00
2023-02-01T13:46:43.086Z,2.10
2023-02-01T13:49:35.454Z,2.06
2023-02-01T13:52:02.180Z,2.10
2023-02-01T13:54:38.444Z,2.13
2023-02-01T13:57:06.134Z,2.07
2023-02-01T13:59:41.965Z,2.01
2023-02-01T14:02:39.334Z,2.04
2023-02-01T14:05:09.235Z,2.01
2023-02-01T14:07:35.901Z,2.05
2023-02-01T14:10:40.276Z,1.96
2023-02-01T14:13:32.029Z,1.94
2023-02-01T14:16:04.607Z,1.89
2023-02-01T14:18:37.089Z,1.89
2023-02-01T14:21:26.601Z,1.86
2023-02-01T14:24:05.774Z,1.83
2023-02-01T14:26:35.708Z,1.83
2023-02-01T14:29:21.545Z,1.85
2023-02-01T14:32:01.639Z,1.81
2023-02-01T14:34:35.760Z,1.85
2023-02-01T14:37:05.090Z,1.82
2023-02-01T14:39:32.873Z,1.88
2023-02-01T14:42:02.821Z,1.84
2023-02-01T14:44:31.398Z,1.83
2023-02-01T14:47:10.406Z,1.77
2023-02-01T14:50:09.707Z,1.80
2023-02-01T14:52:53.983Z,1.73
2023-02-01T14:55:28.247Z,1.73
2023-02-01T14:57:56.035Z,1.74
2023-02-01T15:00:28.228Z,1.70
2023-02-01T15:02:55.845Z,1.67
2023-02-01T15:05:32.755Z,1.68
2023-02-01T15:08:30.734Z,1.73
2023-02-01T15:11:03.816Z,1.68
2023-02-01T15:13:30.511Z,1.65
2023-02-01T15:16:14.436Z,1.70
2023-02-01T15:18:44.122Z,1.70
2023-02-01T15:21:28.844Z,1.68
2023-02-01T15:24:30.589Z,1.68
2023-02-01T15:27:05.749Z,1.65
2023-02-01T15:29:34.983Z,1.64
2023-02-01T15:32:01.772Z,1.67
2023-02-01T15:34:48.627Z,1.70
2023-02-01T15:37:15.937Z,1.69
2023-02-01T15:40:10.391Z,1.72
2023-02-01T15:42:50.088Z,1.68
2023-02-01T15:45:20.962Z,1.01
2023-02-01T15:47:49.248Z,1.67
2023-02-01T15:50:17.469Z,1.63
2023-02-01T15:52:44.039Z,1.62
2023-02-01T15:55:20.715Z,1.61
2023-02-01T15:57:47.374Z,1.64
2023-02-01T16:00:22.928Z,1.56
2023-02-01T16:02:53.505Z,1.59
2023-02-01T16:05:37.180Z,1.52
2023-02-01T16:08:14.919Z,1.51
2023-02-01T16:10:45.671Z,1.59
2023-02-01T16:13:12.894Z,1.55
2023-02-01T16:15:39.719Z,1.53
2023-02-01T16:18:06.854Z,1.51
2023-02-01T16:20:33.493Z,1.53
2023-02-01T16:23:00.189Z,1.61
2023-02-01T16:25:26.834Z,1.54
2023-02-01T16:27:53.703Z,1.54
2023-02-01T16:30:20.558Z,1.55
2023-02-01T16:32:47.500Z,1.57
2023-02-01T16:35:22.784Z,1.59
2023-02-01T16:37:49.556Z,1.48
2023-02-01T16:40:16.964Z,1.56
2023-02-01T16:42:43.715Z,1.58
2023-02-01T16:45:10.519Z,1.55
2023-02-01T16:47:41.031Z,1.60
2023-02-01T16:50:22.708Z,1.57
2023-02-01T16:52:50.329Z,1.58
2023-02-01T16:55:18.123Z,1.59
2023-02-01T16:57:44.933Z,1.54
2023-02-01T17:00:23.869Z,1.51
2023-02-01T17:02:52.538Z,1.48
2023-02-01T17:05:19.338Z,1.50
2023-02-01T17:07:46.099Z,1.44
2023-02-01T17:10:32.647Z,1.54
2023-02-01T17:12:59.826Z,1.53
2023-02-01T17:15:28.620Z,1.49
2023-02-01T17:17:55.361Z,1.52
2023-02-01T17:20:24.649Z,1.56
2023-02-01T17:22:51.507Z,1.55
2023-02-01T17:25:18.941Z,1.58
2023-02-01T17:27:45.722Z,1.65
2023-02-01T17:30:13.284Z,1.59
2023-02-01T17:32:40.367Z,1.61
2023-02-01T17:35:16.682Z,1.62
2023-02-01T17:37:43.475Z,1.57
2023-02-01T17:40:11.461Z,1.65
2023-02-01T17:42:39.299Z,1.69
2023-02-01T17:45:49.586Z,1.65
2023-02-01T17:48:16.256Z,1.72
2023-02-01T17:50:43.173Z,1.65
2023-02-01T17:53:10.599Z,1.54
2023-02-01T17:55:38.386Z,1.66
2023-02-01T17:58:05.136Z,1.67
2023-02-01T18:00:31.927Z,1.63
2023-02-01T18:02:58.529Z,1.63
2023-02-01T18:05:28.487Z,1.70
2023-02-01T18:07:55.117Z,1.71
2023-02-01T18:10:22.097Z,1.64
2023-02-01T18:12:48.830Z,1.66
2023-02-01T18:15:16.485Z,1.66
2023-02-01T18:17:43.083Z,1.62
2023-02-01T18:20:14.236Z,1.65
2023-02-01T18:22:40.901Z,1.71
2023-02-01T18:25:21.026Z,1.69
2023-02-01T18:27:48.833Z,1.68
2023-02-01T18:30:15.681Z,1.68
2023-02-01T18:32:42.347Z,1.71
2023-02-01T18:35:23.596Z,1.70
2023-02-01T18:37:51.203Z,1.72
2023-02-01T18:40:29.012Z,1.68
2023-02-01T18:42:55.789Z,1.66
2023-02-01T18:45:32.381Z,1.73
2023-02-01T18:47:59.152Z,1.79
2023-02-01T18:50:26.074Z,1.70
2023-02-01T18:52:53.915Z,1.72
2023-02-01T18:55:20.644Z,1.81
2023-02-01T18:57:47.268Z,1.74
2023-02-01T19:00:14.453Z,1.83
2023-02-01T19:02:41.389Z,1.76
2023-02-01T19:05:08.804Z,1.67
2023-02-01T19:07:36.112Z,1.83
2023-02-01T19:10:03.964Z,1.80
2023-02-01T19:12:30.703Z,1.79
2023-02-01T19:14:57.265Z,1.80
2023-02-01T19:17:23.901Z,1.79
2023-02-01T19:19:50.517Z,1.80
2023-02-01T19:22:17.839Z,1.77
2023-02-01T19:24:44.543Z,1.73
2023-02-01T19:27:11.324Z,1.75
2023-02-01T19:29:38.176Z,1.71
2023-02-01T19:32:05.468Z,1.80
2023-02-01T19:34:32.064Z,1.74
2023-02-01T19:36:58.801Z,1.81
2023-02-01T19:39:25.396Z,1.80
2023-02-01T19:41:54.820Z,1.75
2023-02-01T19:44:21.691Z,1.78
2023-02-01T19:46:54.609Z,1.87
2023-02-01T19:49:21.481Z,1.87
2023-02-01T19:51:48.158Z,1.78
2023-02-01T19:54:15.274Z,1.75
2023-02-01T19:56:42.096Z,1.91
2023-02-01T19:59:11.157Z,1.77
2023-02-01T20:01:37.032Z,1.76
2023-02-01T20:04:06.988Z,1.82
2023-02-01T20:06:41.828Z,1.80
2023-02-01T20:09:11.474Z,1.79
2023-02-01T20:11:38.301Z,1.80
2023-02-01T20:14:07.922Z,1.81
2023-02-01T20:16:34.601Z,1.81
2023-02-01T20:19:01.359Z,1.77
2023-02-01T20:21:27.919Z,1.83
2023-02-01T20:23:54.590Z,1.76
2023-02-01T20:26:22.530Z,1.84
2023-02-01T20:28:49.484Z,1.75
2023-02-01T20:31:16.153Z,1.72
2023-02-01T20:33:51.932Z,1.82
2023-02-01T20:36:34.308Z,1.77
2023-02-01T20:39:01.236Z,1.72
2023-02-01T20:41:27.959Z,1.77
2023-02-01T20:43:54.807Z,1.82
2023-02-01T20:46:22.049Z,1.82
2023-02-01T20:48:50.475Z,1.81
2023-02-01T20:51:19.091Z,1.94
2023-02-01T20:53:45.738Z,1.92
2023-02-01T20:56:12.479Z,1.91
2023-02-01T20:58:39.255Z,1.87
2023-02-01T21:01:07.044Z,1.86
2023-02-01T21:03:33.969Z,1.85
2023-02-01T21:06:00.747Z,1.85
2023-02-01T21:08:27.805Z,1.74
2023-02-01T21:10:59.784Z,1.70
2023-02-01T21:13:27.143Z,1.83
2023-02-01T21:15:53.857Z,1.82
2023-02-01T21:18:20.525Z,1.80
2023-02-01T21:20:47.250Z,1.79
2023-02-01T21:23:14.485Z,1.84
2023-02-01T21:25:41.564Z,1.77
2023-02-01T21:28:08.171Z,1.79
2023-02-01T21:30:35.085Z,1.75
2023-02-01T21:33:01.790Z,1.67
2023-02-01T21:35:28.546Z,1.55
2023-02-01T21:37:55.191Z,1.55
2023-02-01T21:40:21.694Z,1.53
2023-02-01T21:42:48.271Z,1.45
2023-02-01T21:45:15.800Z,1.34
2023-02-01T21:47:42.669Z,1.37
2023-02-01T21:50:14.023Z,1.42
2023-02-01T21:52:40.745Z,1.53
2023-02-01T21:55:08.006Z,1.43
2023-02-01T21:57:34.686Z,1.46
2023-02-01T22:00:01.326Z,1.58
2023-02-01T22:02:28.167Z,1.55
2023-02-01T22:04:54.980Z,1.52
2023-02-01T22:07:21.593Z,1.39
2023-02-01T22:09:48.162Z,1.33
2023-02-01T22:12:15.026Z,1.27
2023-02-01T22:14:41.746Z,1.36
2023-02-01T22:17:08.326Z,1.30
2023-02-01T22:19:34.952Z,1.29
2023-02-01T22:22:01.665Z,1.39
2023-02-01T22:24:28.168Z,1.46
2023-02-01T22:26:54.808Z,1.44
2023-02-01T22:29:21.504Z,1.50
2023-02-01T22:31:48.290Z,1.45
2023-02-01T22:34:14.995Z,1.46
2023-02-01T22:36:41.651Z,1.56
2023-02-01T22:39:08.573Z,1.61
2023-02-01T22:41:35.120Z,1.43
2023-02-01T22:44:01.780Z,1.63
2023-02-01T22:46:28.897Z,1.64
2023-02-01T22:48:55.514Z,1.63
2023-02-01T22:51:32.207Z,1.71
2023-02-01T22:53:58.925Z,1.67
2023-02-01T22:56:27.153Z,1.67
2023-02-01T22:58:55.367Z,1.65
2023-02-01T23:01:22.072Z,1.68
2023-02-01T23:03:48.796Z,1.63
2023-02-01T23:06:15.700Z,1.56
2023-02-01T23:08:42.411Z,1.52
2023-02-01T23:11:09.768Z,1.50
2023-02-01T23:13:36.859Z,1.56
2023-02-01T23:16:08.607Z,1.58
2023-02-01T23:18:35.337Z,1.62
2023-02-01T23:21:06.325Z,1.63
2023-02-01T23:23:33.078Z,1.70
2023-02-01T23:25:59.688Z,1.67
2023-02-01T23:28:26.972Z,1.72
2023-02-01T23:30:53.711Z,1.68
2023-02-01T23:33:27.104Z,1.75
2023-02-01T23:35:57.564Z,1.71
2023-02-01T23:38:24.696Z,1.70
2023-02-01T23:40:52.288Z,1.65
2023-02-01T23:43:18.997Z,1.59
2023-02-01T23:45:45.590Z,1.68
2023-02-01T23:48:12.201Z,1.65
2023-02-01T23:50:38.739Z,1.63
2023-02-01T23:53:05.383Z,1.54
2023-02-01T23:55:32.019Z,1.72
2023-02-01T23:57:58.601Z,1.66
